createdAt,value
2018-07-02T00:00:25.561Z,98666.87
2018-07-02T00:02:54.623Z,98664.61
2018-07-02T00:05:24.839Z,98659.72
2018-07-02T00:07:53.873Z,98659.48
2018-07-02T00:10:22.967Z,98655.31
2018-07-02T00:12:52.001Z,98649.59
2018-07-02T00:15:21.045Z,98648.59
2018-07-02T00:17:50.118Z,98648.70
2018-07-02T00:20:19.145Z,98652.37
2018-07-02T00:22:48.232Z,98656.90
2018-07-02T00:25:17.284Z,98649.84
2018-07-02T00:27:46.348Z,98658.66
2018-07-02T00:30:15.390Z,98656.83
2018-07-02T00:32:44.479Z,98650.03
2018-07-02T00:35:13.543Z,98654.39
2018-07-02T00:37:42.670Z,98654.20
2018-07-02T00:40:11.688Z,98653.70
2018-07-02T00:42:41.517Z,98652.81
2018-07-02T00:45:10.615Z,98648.59
2018-07-02T00:47:39.703Z,98645.89
2018-07-02T00:50:08.787Z,98656.78
2018-07-02T00:52:37.866Z,98652.87
2018-07-02T00:55:06.953Z,98663.77
2018-07-02T00:57:36.058Z,98659.50
2018-07-02T01:00:14.283Z,98666.64
2018-07-02T01:02:43.423Z,98667.19
2018-07-02T01:05:13.229Z,98672.59
2018-07-02T01:07:43.637Z,98675.28
2018-07-02T01:10:12.725Z,98666.78
2018-07-02T01:12:41.889Z,98671.50
2018-07-02T01:15:10.935Z,98674.63
2018-07-02T01:17:40.086Z,98678.65
2018-07-02T01:20:09.272Z,98689.77
2018-07-02T01:22:38.294Z,98687.78
2018-07-02T01:25:07.397Z,98686.04
2018-07-02T01:27:36.485Z,98687.98
2018-07-02T01:30:06.678Z,98683.80
2018-07-02T01:32:35.742Z,98680.70
2018-07-02T01:35:04.837Z,98683.05
2018-07-02T01:37:33.868Z,98683.57
2018-07-02T01:40:02.967Z,98684.96
2018-07-02T01:42:31.977Z,98694.38
2018-07-02T01:45:01.074Z,98696.22
2018-07-02T01:47:30.118Z,98693.77
2018-07-02T01:49:59.181Z,98698.91
2018-07-02T01:52:28.258Z,98696.02
2018-07-02T01:54:57.366Z,98689.99
2018-07-02T01:57:26.410Z,98693.94
2018-07-02T01:59:55.561Z,98688.95
2018-07-02T02:02:24.657Z,98692.47
2018-07-02T02:04:53.696Z,98692.30
2018-07-02T02:07:23.245Z,98693.48
2018-07-02T02:09:52.583Z,98685.19
2018-07-02T02:12:21.851Z,98680.36
2018-07-02T02:14:51.035Z,98684.00
2018-07-02T02:17:20.137Z,98679.67
2018-07-02T02:19:49.213Z,98677.91
2018-07-02T02:22:18.285Z,98678.78
2018-07-02T02:24:47.404Z,98684.63
2018-07-02T02:27:16.613Z,98682.83
2018-07-02T02:29:45.696Z,98690.06
2018-07-02T02:32:15.238Z,98688.39
2018-07-02T02:34:44.298Z,98689.56
2018-07-02T02:37:13.358Z,98679.91
2018-07-02T02:39:42.476Z,98681.59
2018-07-02T02:42:11.619Z,98674.94
2018-07-02T02:44:40.658Z,98681.80
2018-07-02T02:47:09.775Z,98673.02
2018-07-02T02:49:38.959Z,98673.98
2018-07-02T02:52:08.051Z,98671.52
2018-07-02T02:54:37.095Z,98671.88
2018-07-02T02:57:06.273Z,98671.43
2018-07-02T02:59:35.369Z,98668.23
2018-07-02T03:02:04.477Z,98669.47
2018-07-02T03:04:33.558Z,98672.02
2018-07-02T03:07:03.120Z,98679.72
2018-07-02T03:09:32.164Z,98671.78
2018-07-02T03:12:01.264Z,98679.17
2018-07-02T03:14:30.654Z,98680.98
2018-07-02T03:16:59.725Z,98676.90
2018-07-02T03:19:29.240Z,98677.91
2018-07-02T03:21:58.354Z,98670.91
2018-07-02T03:24:27.450Z,98673.76
2018-07-02T03:26:56.807Z,98670.62
2018-07-02T03:29:26.000Z,98675.17
2018-07-02T03:31:55.058Z,98670.12
2018-07-02T03:34:24.137Z,98692.06
2018-07-02T03:36:53.190Z,98692.58
2018-07-02T03:39:22.300Z,98686.51
2018-07-02T03:41:51.386Z,98694.67
2018-07-02T03:44:20.469Z,98703.88
2018-07-02T03:46:49.524Z,98706.19
2018-07-02T03:49:18.611Z,98699.10
2018-07-02T03:51:47.681Z,98698.63
2018-07-02T03:54:16.777Z,98699.09
2018-07-02T03:56:45.874Z,98692.42
2018-07-02T03:59:15.076Z,98704.58
2018-07-02T04:01:44.151Z,98704.73
2018-07-02T04:04:13.265Z,98701.66
2018-07-02T04:06:42.492Z,98698.45
2018-07-02T04:09:13.756Z,98701.06
2018-07-02T04:11:42.896Z,98701.60
2018-07-02T04:14:11.943Z,98704.64
2018-07-02T04:16:41.139Z,98706.77
2018-07-02T04:19:12.057Z,98707.00
2018-07-02T04:21:42.441Z,98708.45
2018-07-02T04:24:11.648Z,98711.19
2018-07-02T04:26:41.796Z,98703.11
2018-07-02T04:29:11.513Z,98703.81
2018-07-02T04:31:40.580Z,98698.35
2018-07-02T04:34:09.703Z,98702.21
2018-07-02T04:36:39.204Z,98702.36
2018-07-02T04:39:08.844Z,98701.56
2018-07-02T04:41:38.195Z,98695.45
2018-07-02T04:44:08.178Z,98694.27
2018-07-02T04:46:37.428Z,98689.47
2018-07-02T04:49:06.533Z,98696.47
2018-07-02T04:51:35.673Z,98699.47
2018-07-02T04:54:04.757Z,98701.09
2018-07-02T04:56:33.929Z,98703.77
2018-07-02T04:59:03.001Z,98698.75
2018-07-02T05:01:32.082Z,98707.02
2018-07-02T05:04:01.241Z,98650.63
2018-07-02T05:06:30.300Z,98712.09
2018-07-02T05:08:59.506Z,98706.20
2018-07-02T05:11:28.699Z,98708.95
2018-07-02T05:13:57.808Z,98711.93
2018-07-02T05:16:26.925Z,98712.73
2018-07-02T05:18:56.005Z,98706.59
2018-07-02T05:21:25.075Z,98698.56
2018-07-02T05:23:54.174Z,98702.01
2018-07-02T05:26:23.227Z,98695.73
2018-07-02T05:28:52.318Z,98705.95
2018-07-02T05:31:21.409Z,98709.22
2018-07-02T05:33:50.474Z,98703.06
2018-07-02T05:36:19.571Z,98706.91
2018-07-02T05:38:48.698Z,98708.00
2018-07-02T05:41:17.809Z,98706.59
2018-07-02T05:43:46.926Z,98699.86
2018-07-02T05:46:16.022Z,98704.72
2018-07-02T05:48:45.112Z,98719.80
2018-07-02T05:51:14.420Z,98716.17
2018-07-02T05:53:43.569Z,98718.30
2018-07-02T05:56:12.721Z,98716.84
2018-07-02T05:58:41.894Z,98720.33
2018-07-02T06:01:11.028Z,98707.98
2018-07-02T06:03:40.179Z,98712.34
2018-07-02T06:06:09.214Z,98726.94
2018-07-02T06:08:38.916Z,98724.97
2018-07-02T06:11:08.017Z,98726.38
2018-07-02T06:13:37.121Z,98731.69
2018-07-02T06:16:06.273Z,98733.92
2018-07-02T06:18:35.368Z,98738.47
2018-07-02T06:21:04.669Z,98735.05
2018-07-02T06:23:33.789Z,98729.72
2018-07-02T06:26:02.880Z,98735.69
2018-07-02T06:28:31.957Z,98738.33
2018-07-02T06:31:01.068Z,98734.69
2018-07-02T06:33:30.145Z,98737.64
2018-07-02T06:35:59.465Z,98730.64
2018-07-02T06:38:28.582Z,98728.16
2018-07-02T06:40:57.756Z,98727.87
2018-07-02T06:43:26.902Z,98733.84
2018-07-02T06:45:56.010Z,98740.26
2018-07-02T06:48:25.157Z,98741.56
2018-07-02T06:50:54.832Z,98736.18
2018-07-02T06:53:23.888Z,98739.12
2018-07-02T06:55:52.980Z,98734.45
2018-07-02T06:58:22.051Z,98742.17
2018-07-02T07:00:51.153Z,98729.78
2018-07-02T07:03:20.308Z,98728.57
2018-07-02T07:05:49.385Z,98733.42
2018-07-02T07:08:18.807Z,98744.50
2018-07-02T07:10:47.890Z,98740.80
2018-07-02T07:13:17.112Z,98735.64
2018-07-02T07:15:46.534Z,98731.94
2018-07-02T07:18:15.731Z,98703.61
2018-07-02T07:20:44.834Z,98739.85
2018-07-02T07:23:14.568Z,98736.27
2018-07-02T07:25:43.738Z,98730.75
2018-07-02T07:28:12.837Z,98736.89
2018-07-02T07:30:42.537Z,98730.75
2018-07-02T07:33:11.605Z,98733.09
2018-07-02T07:35:40.935Z,98732.86
2018-07-02T07:38:10.074Z,98723.97
2018-07-02T07:40:39.194Z,98744.13
2018-07-02T07:43:08.265Z,98739.23
2018-07-02T07:45:37.395Z,98735.59
2018-07-02T07:48:06.658Z,98694.14
2018-07-02T07:50:35.733Z,98721.47
2018-07-02T07:53:05.525Z,98736.63
2018-07-02T07:55:34.709Z,98734.92
2018-07-02T07:58:03.995Z,98731.60
2018-07-02T08:00:33.059Z,98729.84
2018-07-02T08:03:02.139Z,98736.09
2018-07-02T08:05:31.161Z,98739.94
2018-07-02T08:08:00.318Z,98739.91
2018-07-02T08:10:29.480Z,98738.44
2018-07-02T08:12:58.497Z,98740.16
2018-07-02T08:15:27.597Z,98744.73
2018-07-02T08:17:57.255Z,98749.17
2018-07-02T08:20:26.365Z,98744.77
2018-07-02T08:22:55.799Z,98740.88
2018-07-02T08:25:24.941Z,98746.47
2018-07-02T08:27:54.105Z,98747.17
2018-07-02T08:30:23.217Z,98746.14
2018-07-02T08:32:52.269Z,98743.77
2018-07-02T08:35:21.330Z,98740.94
2018-07-02T08:37:50.502Z,98744.36
2018-07-02T08:40:19.615Z,98745.02
2018-07-02T08:42:48.778Z,98744.49
2018-07-02T08:45:17.889Z,98743.25
2018-07-02T08:47:46.939Z,98742.91
2018-07-02T08:50:16.036Z,98737.86
2018-07-02T08:52:45.188Z,98728.68
2018-07-02T08:55:14.312Z,98737.34
2018-07-02T08:57:43.412Z,98735.30
2018-07-02T09:00:12.594Z,98727.10
2018-07-02T09:02:41.741Z,98727.33
2018-07-02T09:05:10.873Z,98722.45
2018-07-02T09:07:40.013Z,98728.41
2018-07-02T09:10:09.173Z,98725.33
2018-07-02T09:12:38.298Z,98724.66
2018-07-02T09:15:07.482Z,98728.48
2018-07-02T09:17:36.604Z,98720.74
2018-07-02T09:20:05.799Z,98718.16
2018-07-02T09:22:34.897Z,98716.41
2018-07-02T09:25:04.502Z,98715.68
2018-07-02T09:27:33.761Z,98723.30
2018-07-02T09:30:03.086Z,98711.91
2018-07-02T09:32:32.873Z,98728.33
2018-07-02T09:35:01.899Z,98726.14
2018-07-02T09:37:31.884Z,98692.97
2018-07-02T09:40:01.045Z,98721.99
2018-07-02T09:42:30.217Z,98730.33
2018-07-02T09:44:59.306Z,98731.08
2018-07-02T09:47:28.414Z,98729.20
2018-07-02T09:49:57.950Z,98744.14
2018-07-02T09:52:27.081Z,98733.99
2018-07-02T09:54:56.254Z,98744.92
2018-07-02T09:57:25.366Z,98744.05
2018-07-02T09:59:54.505Z,98743.55
2018-07-02T10:02:23.709Z,98752.50
2018-07-02T10:04:53.235Z,98750.11
2018-07-02T10:07:22.370Z,98726.02
2018-07-02T10:09:51.500Z,98750.52
2018-07-02T10:12:20.849Z,98742.61
2018-07-02T10:14:50.053Z,98752.13
2018-07-02T10:17:19.289Z,98754.80
2018-07-02T10:19:48.337Z,98756.02
2018-07-02T10:22:17.487Z,98745.17
2018-07-02T10:24:46.675Z,98743.40
2018-07-02T10:27:15.810Z,98744.73
2018-07-02T10:29:45.557Z,98747.72
2018-07-02T10:32:14.845Z,98748.20
2018-07-02T10:34:43.913Z,98739.95
2018-07-02T10:37:13.042Z,98744.73
2018-07-02T10:39:42.215Z,98750.66
2018-07-02T10:42:11.230Z,98639.02
2018-07-02T10:44:40.429Z,98743.25
2018-07-02T10:47:09.470Z,98736.53
2018-07-02T10:49:38.594Z,98740.62
2018-07-02T10:52:07.765Z,98743.35
2018-07-02T10:54:36.873Z,98746.83
2018-07-02T10:57:06.005Z,98748.77
2018-07-02T10:59:35.374Z,98744.41
2018-07-02T11:02:04.509Z,98739.49
2018-07-02T11:04:33.669Z,98736.05
2018-07-02T11:07:02.773Z,98728.63
2018-07-02T11:09:31.857Z,98735.72
2018-07-02T11:12:01.001Z,98736.73
2018-07-02T11:14:30.201Z,98739.27
2018-07-02T11:16:59.290Z,98734.38
2018-07-02T11:19:29.015Z,98739.67
2018-07-02T11:21:58.177Z,98739.06
2018-07-02T11:24:27.324Z,98739.45
2018-07-02T11:26:56.461Z,98746.11
2018-07-02T11:29:25.534Z,98741.43
2018-07-02T11:31:54.775Z,98740.68
2018-07-02T11:34:23.893Z,98738.11
2018-07-02T11:36:52.980Z,98742.05
2018-07-02T11:39:22.170Z,98738.53
2018-07-02T11:41:51.435Z,98739.62
2018-07-02T11:44:20.522Z,98737.95
2018-07-02T11:46:49.633Z,98733.68
2018-07-02T11:49:18.817Z,98727.45
2018-07-02T11:51:47.964Z,98731.36
2018-07-02T11:54:17.153Z,98727.86
2018-07-02T11:56:46.313Z,98715.64
2018-07-02T11:59:15.390Z,98714.86
2018-07-02T12:01:44.467Z,98710.59
2018-07-02T12:04:13.612Z,98717.61
2018-07-02T12:06:42.776Z,98713.53
2018-07-02T12:09:12.687Z,98710.02
2018-07-02T12:11:42.396Z,98708.46
2018-07-02T12:14:11.850Z,98714.29
2018-07-02T12:16:41.021Z,98715.99
2018-07-02T12:19:10.117Z,98709.75
2018-07-02T12:21:39.252Z,98708.59
2018-07-02T12:24:08.437Z,98707.80
2018-07-02T12:26:37.560Z,98707.97
2018-07-02T12:29:06.690Z,98714.49
2018-07-02T12:31:35.814Z,98702.45
2018-07-02T12:34:05.125Z,98700.84
2018-07-02T12:36:34.170Z,98697.65
2018-07-02T12:39:03.316Z,98688.55
2018-07-02T12:41:32.431Z,98682.54
2018-07-02T12:44:01.558Z,98683.20
2018-07-02T12:46:30.632Z,98688.48
2018-07-02T12:49:00.272Z,98684.28
2018-07-02T12:51:30.278Z,98694.61
2018-07-02T12:53:59.453Z,98691.27
2018-07-02T12:56:28.565Z,98689.56
2018-07-02T12:58:57.676Z,98678.28
2018-07-02T13:01:26.833Z,98682.78
2018-07-02T13:03:55.953Z,98673.84
2018-07-02T13:06:25.049Z,98671.22
2018-07-02T13:08:54.325Z,98664.45
2018-07-02T13:11:23.478Z,98666.09
2018-07-02T13:13:53.262Z,98656.77
2018-07-02T13:16:22.391Z,98670.45
2018-07-02T13:18:51.503Z,98663.59
2018-07-02T13:21:20.682Z,98657.19
2018-07-02T13:23:49.808Z,98652.34
2018-07-02T13:26:18.956Z,98650.47
2018-07-02T13:28:48.153Z,98647.89
2018-07-02T13:31:17.457Z,98657.70
2018-07-02T13:33:46.750Z,98658.77
2018-07-02T13:36:16.495Z,98661.97
2018-07-02T13:38:45.803Z,98666.89
2018-07-02T13:41:14.874Z,98668.83
2018-07-02T13:43:43.925Z,98662.43
2018-07-02T13:46:13.047Z,98651.58
2018-07-02T13:48:42.972Z,98647.22
2018-07-02T13:51:12.336Z,98645.98
2018-07-02T13:53:41.365Z,98651.87
2018-07-02T13:56:11.358Z,98660.48
2018-07-02T13:58:40.700Z,98669.12
2018-07-02T14:01:09.994Z,98671.81
2018-07-02T14:03:39.138Z,98665.22
2018-07-02T14:06:08.383Z,98656.22
2018-07-02T14:08:37.545Z,98656.62
2018-07-02T14:11:06.763Z,98652.19
2018-07-02T14:13:35.936Z,98647.97
2018-07-02T14:16:05.170Z,98643.78
2018-07-02T14:18:34.412Z,98643.00
2018-07-02T14:21:03.472Z,98648.29
2018-07-02T14:23:32.680Z,98652.89
2018-07-02T14:26:01.750Z,98648.40
2018-07-02T14:28:30.841Z,98639.20
2018-07-02T14:30:59.929Z,98644.18
2018-07-02T14:33:29.077Z,98646.97
2018-07-02T14:35:58.449Z,98645.09
2018-07-02T14:38:27.613Z,98655.16
2018-07-02T14:40:56.693Z,98648.78
2018-07-02T14:43:26.051Z,98647.62
2018-07-02T14:45:55.191Z,98638.71
2018-07-02T14:48:24.330Z,98636.37
2018-07-02T14:50:54.251Z,98638.95
2018-07-02T14:53:23.323Z,98643.05
2018-07-02T14:55:52.426Z,98644.01
2018-07-02T14:58:21.558Z,98643.95
2018-07-02T15:00:50.611Z,98638.34
2018-07-02T15:03:19.835Z,98628.36
2018-07-02T15:05:48.894Z,98633.59
2018-07-02T15:08:18.007Z,98632.30
2018-07-02T15:10:47.446Z,98635.86
2018-07-02T15:13:16.601Z,98633.50
2018-07-02T15:15:45.758Z,98632.38
2018-07-02T15:18:15.359Z,98633.80
2018-07-02T15:20:44.520Z,98636.40
2018-07-02T15:23:14.142Z,98643.23
2018-07-02T15:25:43.315Z,98642.48
2018-07-02T15:28:12.772Z,98638.69
2018-07-02T15:30:42.010Z,98641.00
2018-07-02T15:33:11.118Z,98647.55
2018-07-02T15:35:40.265Z,98643.16
2018-07-02T15:38:09.424Z,98645.66
2018-07-02T15:40:38.618Z,98642.50
2018-07-02T15:43:07.897Z,98644.93
2018-07-02T15:45:37.067Z,98646.02
2018-07-02T15:48:06.601Z,98649.64
2018-07-02T15:50:35.874Z,98647.62
2018-07-02T15:53:05.123Z,98642.31
2018-07-02T15:55:34.340Z,98643.38
2018-07-02T15:58:03.608Z,98642.51
2018-07-02T16:00:32.797Z,98643.56
2018-07-02T16:03:01.902Z,98645.44
2018-07-02T16:05:31.792Z,98639.69
2018-07-02T16:08:00.914Z,98634.12
2018-07-02T16:10:30.024Z,98632.74
2018-07-02T16:12:59.182Z,98633.99
2018-07-02T16:15:28.293Z,98631.78
2018-07-02T16:17:57.327Z,98642.79
2018-07-02T16:20:26.397Z,98645.59
2018-07-02T16:22:55.595Z,98638.63
2018-07-02T16:25:24.652Z,98632.77
2018-07-02T16:27:53.726Z,98638.66
2018-07-02T16:30:22.831Z,98643.14
2018-07-02T16:32:51.982Z,98636.05
2018-07-02T16:35:21.124Z,98642.44
2018-07-02T16:37:50.329Z,98634.61
2018-07-02T16:40:19.479Z,98636.36
2018-07-02T16:42:49.243Z,98636.83
2018-07-02T16:45:18.370Z,98628.95
2018-07-02T16:47:47.762Z,98634.86
2018-07-02T16:50:16.829Z,98632.48
2018-07-02T16:52:46.039Z,98613.13
2018-07-02T16:55:15.135Z,98638.46
2018-07-02T16:57:44.238Z,98634.30
2018-07-02T17:00:13.427Z,98642.42
2018-07-02T17:02:42.521Z,98640.41
2018-07-02T17:05:11.633Z,98636.69
2018-07-02T17:07:40.753Z,98631.83
2018-07-02T17:10:09.946Z,98637.14
2018-07-02T17:12:39.083Z,98636.25
2018-07-02T17:15:08.183Z,98635.28
2018-07-02T17:17:37.359Z,98633.70
2018-07-02T17:20:07.238Z,98634.98
2018-07-02T17:22:36.592Z,98629.72
2018-07-02T17:25:05.729Z,98633.20
2018-07-02T17:27:34.844Z,98632.01
2018-07-02T17:30:04.224Z,98638.55
2018-07-02T17:32:33.368Z,98629.18
2018-07-02T17:35:02.515Z,98632.01
2018-07-02T17:37:31.689Z,98631.83
2018-07-02T17:40:00.860Z,98630.23
2018-07-02T17:42:29.954Z,98636.14
2018-07-02T17:44:59.146Z,98634.48
2018-07-02T17:47:28.205Z,98642.92
2018-07-02T17:49:57.325Z,98639.03
2018-07-02T17:52:26.433Z,98639.56
2018-07-02T17:54:55.569Z,98639.88
2018-07-02T17:57:24.704Z,98641.81
2018-07-02T17:59:53.823Z,98642.60
2018-07-02T18:02:24.109Z,98634.20
2018-07-02T18:04:53.416Z,98640.34
2018-07-02T18:07:22.645Z,98632.45
2018-07-02T18:09:51.781Z,98640.29
2018-07-02T18:12:21.555Z,98635.62
2018-07-02T18:14:50.653Z,98631.66
2018-07-02T18:17:20.070Z,98634.39
2018-07-02T18:19:49.224Z,98640.97
2018-07-02T18:22:18.316Z,98644.34
2018-07-02T18:24:47.354Z,98645.30
2018-07-02T18:27:16.486Z,98643.93
2018-07-02T18:29:45.642Z,98652.17
2018-07-02T18:32:14.837Z,98650.70
2018-07-02T18:34:43.857Z,98650.06
2018-07-02T18:37:12.953Z,98642.38
2018-07-02T18:39:42.018Z,98645.08
2018-07-02T18:42:11.198Z,98649.16
2018-07-02T18:44:40.378Z,98652.05
2018-07-02T18:47:09.491Z,98653.19
2018-07-02T18:49:38.664Z,98653.05
2018-07-02T18:52:07.789Z,98656.36
2018-07-02T18:54:36.864Z,98650.34
2018-07-02T18:57:07.095Z,98647.42
2018-07-02T18:59:36.362Z,98650.53
2018-07-02T19:02:05.850Z,98652.09
2018-07-02T19:04:35.056Z,98656.95
2018-07-02T19:07:04.130Z,98664.92
2018-07-02T19:09:34.208Z,98671.33
2018-07-02T19:12:03.671Z,98673.25
2018-07-02T19:14:32.858Z,98671.53
2018-07-02T19:17:01.977Z,98424.74
2018-07-02T19:19:31.106Z,98680.23
2018-07-02T19:22:00.285Z,98681.02
2018-07-02T19:24:29.389Z,98688.98
2018-07-02T19:26:58.494Z,98678.72
2018-07-02T19:29:27.824Z,98680.77
2018-07-02T19:31:57.603Z,98685.13
2018-07-02T19:34:26.999Z,98695.66
2018-07-02T19:36:57.530Z,98702.88
2018-07-02T19:39:26.637Z,98699.48
2018-07-02T19:41:55.978Z,98696.73
2018-07-02T19:44:25.137Z,98703.31
2018-07-02T19:46:54.674Z,98711.11
2018-07-02T19:49:23.729Z,98713.26
2018-07-02T19:51:53.032Z,98712.64
2018-07-02T19:54:22.235Z,98717.33
2018-07-02T19:56:52.068Z,98721.12
2018-07-02T19:59:21.229Z,98720.80
2018-07-02T20:01:50.334Z,98725.42
2018-07-02T20:04:19.458Z,98716.35
2018-07-02T20:06:48.587Z,98719.70
2018-07-02T20:09:17.652Z,98726.98
2018-07-02T20:11:46.809Z,98730.23
2018-07-02T20:14:15.866Z,98737.27
2018-07-02T20:16:45.246Z,98742.45
2018-07-02T20:19:14.341Z,98741.50
2018-07-02T20:21:43.404Z,98746.33
2018-07-02T20:24:12.473Z,98750.40
2018-07-02T20:26:41.622Z,98761.95
2018-07-02T20:29:11.309Z,98746.31
2018-07-02T20:31:41.533Z,98749.86
2018-07-02T20:34:10.581Z,98748.81
2018-07-02T20:36:39.694Z,98749.67
2018-07-02T20:39:10.667Z,98755.14
2018-07-02T20:41:39.754Z,98758.96
2018-07-02T20:44:08.839Z,98759.83
2018-07-02T20:46:37.925Z,98756.89
2018-07-02T20:49:07.006Z,98763.40
2018-07-02T20:51:36.058Z,98766.11
2018-07-02T20:54:05.232Z,98770.91
2018-07-02T20:56:34.397Z,98768.20
2018-07-02T20:59:03.873Z,98569.42
2018-07-02T21:01:33.336Z,98775.31
2018-07-02T21:04:02.937Z,98786.67
2018-07-02T21:06:32.085Z,98799.77
2018-07-02T21:09:01.272Z,98798.66
2018-07-02T21:11:30.407Z,98797.73
2018-07-02T21:13:59.480Z,98806.39
2018-07-02T21:16:28.625Z,98803.59
2018-07-02T21:18:57.697Z,98797.18
2018-07-02T21:21:26.809Z,98793.71
2018-07-02T21:23:55.922Z,98792.30
2018-07-02T21:26:25.052Z,98790.16
2018-07-02T21:28:54.105Z,98795.92
2018-07-02T21:31:23.434Z,98795.40
2018-07-02T21:33:52.501Z,98795.14
2018-07-02T21:36:21.727Z,98793.17
2018-07-02T21:38:50.791Z,98789.03
2018-07-02T21:41:20.210Z,98791.88
2018-07-02T21:43:49.602Z,98791.88
2018-07-02T21:46:20.230Z,98695.22
2018-07-02T21:48:49.339Z,98795.13
2018-07-02T21:51:18.421Z,98791.94
2018-07-02T21:53:47.469Z,98803.48
2018-07-02T21:56:16.610Z,98807.09
2018-07-02T21:58:45.719Z,98805.94
2018-07-02T22:01:19.642Z,98803.32
2018-07-02T22:03:48.933Z,98800.41
2018-07-02T22:06:18.477Z,98801.17
2018-07-02T22:08:47.645Z,98802.33
2018-07-02T22:11:17.371Z,98804.42
2018-07-02T22:13:46.501Z,98805.58
2018-07-02T22:16:15.802Z,98803.31
2018-07-02T22:18:44.889Z,98801.48
2018-07-02T22:21:14.019Z,98697.20
2018-07-02T22:23:43.187Z,98806.44
2018-07-02T22:26:12.300Z,98815.47
2018-07-02T22:28:41.878Z,98815.73
2018-07-02T22:31:11.085Z,98822.72
2018-07-02T22:33:40.266Z,98817.95
2018-07-02T22:36:09.408Z,98820.18
2018-07-02T22:38:38.507Z,98819.19
2018-07-02T22:41:07.710Z,98827.61
2018-07-02T22:43:36.802Z,98833.00
2018-07-02T22:46:05.887Z,98835.36
2018-07-02T22:48:34.949Z,98831.97
2018-07-02T22:51:04.043Z,98802.63
2018-07-02T22:53:33.138Z,98833.12
2018-07-02T22:56:04.397Z,98840.50
2018-07-02T22:58:33.444Z,98836.22
2018-07-02T23:01:02.924Z,98840.70
2018-07-02T23:03:32.085Z,98840.69
2018-07-02T23:06:01.127Z,98833.52
2018-07-02T23:08:30.182Z,98831.19
2018-07-02T23:10:59.210Z,98840.36
2018-07-02T23:13:28.305Z,98841.69
2018-07-02T23:16:05.185Z,98839.34
2018-07-02T23:18:34.722Z,98845.98
2018-07-02T23:21:03.766Z,98837.77
2018-07-02T23:23:32.858Z,98836.76
2018-07-02T23:26:01.891Z,98835.63
2018-07-02T23:28:30.934Z,98832.34
2018-07-02T23:31:00.012Z,98832.00
2018-07-02T23:33:29.024Z,98833.97
2018-07-02T23:35:58.074Z,98839.26
2018-07-02T23:38:27.145Z,98833.45
2018-07-02T23:40:56.289Z,98841.71
2018-07-02T23:43:25.337Z,98840.61
2018-07-02T23:45:54.413Z,98837.55
2018-07-02T23:48:23.451Z,98834.24
2018-07-02T23:50:52.510Z,98835.25
2018-07-02T23:53:21.635Z,98833.80
2018-07-02T23:55:50.650Z,98836.75
2018-07-02T23:58:19.725Z,98828.69
